createdAt,value
2023-07-05T00:00:24.620Z,4.47
2023-07-05T00:02:53.151Z,4.45
2023-07-05T00:05:21.644Z,4.55
2023-07-05T00:07:50.178Z,5.05
2023-07-05T00:10:18.751Z,3.90
2023-07-05T00:12:47.423Z,4.40
2023-07-05T00:15:17.259Z,4.43
2023-07-05T00:17:45.626Z,3.92
2023-07-05T00:20:15.270Z,4.60
2023-07-05T00:22:43.606Z,4.28
2023-07-05T00:25:12.289Z,4.57
2023-07-05T00:27:40.621Z,4.55
2023-07-05T00:30:09.852Z,4.57
2023-07-05T00:32:39.699Z,4.30
2023-07-05T00:35:08.921Z,4.20
2023-07-05T00:37:38.592Z,4.60
2023-07-05T00:40:08.296Z,4.38
2023-07-05T00:42:36.622Z,4.35
2023-07-05T00:46:02.265Z,4.25
2023-07-05T00:48:36.882Z,5.15
2023-07-05T00:51:20.572Z,4.97
2023-07-05T00:53:49.836Z,4.63
2023-07-05T00:56:29.194Z,4.80
2023-07-05T00:59:00.027Z,5.15
2023-07-05T01:01:29.334Z,5.07
2023-07-05T01:04:01.532Z,5.05
2023-07-05T01:06:29.910Z,6.05
2023-07-05T01:08:58.944Z,5.78
2023-07-05T01:11:34.548Z,6.40
2023-07-05T01:14:09.728Z,5.85
2023-07-05T01:16:52.647Z,5.45
2023-07-05T01:19:54.261Z,6.20
2023-07-05T01:22:40.496Z,5.70
2023-07-05T01:25:36.950Z,6.57
2023-07-05T01:28:22.226Z,5.93
2023-07-05T01:31:16.087Z,6.20
2023-07-05T01:33:52.336Z,6.30
2023-07-05T01:36:21.910Z,5.50
2023-07-05T01:38:50.228Z,5.60
2023-07-05T01:41:18.565Z,6.20
2023-07-05T01:43:47.910Z,6.07
2023-07-05T01:46:26.239Z,6.03
2023-07-05T01:49:27.301Z,6.20
2023-07-05T01:52:00.739Z,6.57
2023-07-05T01:54:37.738Z,6.53
2023-07-05T01:57:12.594Z,7.45
2023-07-05T01:59:48.005Z,7.53
2023-07-05T02:02:17.735Z,8.52
2023-07-05T02:04:49.012Z,7.63
2023-07-05T02:07:17.419Z,8.60
2023-07-05T02:09:46.187Z,8.55
2023-07-05T02:12:14.628Z,8.70
2023-07-05T02:14:43.028Z,8.35
2023-07-05T02:17:11.375Z,8.70
2023-07-05T02:19:39.739Z,9.15
2023-07-05T02:22:09.662Z,9.07
2023-07-05T02:24:38.023Z,9.13
2023-07-05T02:27:08.126Z,9.95
2023-07-05T02:29:37.334Z,8.95
2023-07-05T02:32:05.941Z,9.98
2023-07-05T02:34:34.285Z,10.07
2023-07-05T02:37:02.618Z,9.75
2023-07-05T02:39:32.430Z,10.73
2023-07-05T02:42:00.841Z,9.65
2023-07-05T02:44:29.217Z,10.65
2023-07-05T02:46:57.590Z,10.15
2023-07-05T02:49:25.961Z,10.25
2023-07-05T02:51:54.644Z,9.93
2023-07-05T02:54:23.430Z,10.07
2023-07-05T02:56:53.201Z,9.23
2023-07-05T02:59:21.577Z,9.52
2023-07-05T03:01:49.997Z,9.63
2023-07-05T03:04:18.420Z,10.25
2023-07-05T03:06:46.755Z,9.80
2023-07-05T03:09:15.495Z,9.57
2023-07-05T03:11:43.808Z,9.95
2023-07-05T03:14:13.544Z,9.48
2023-07-05T03:16:44.848Z,9.27
2023-07-05T03:19:13.674Z,9.10
2023-07-05T03:21:43.873Z,9.45
2023-07-05T03:24:12.263Z,9.75
2023-07-05T03:26:40.752Z,10.27
2023-07-05T03:29:09.050Z,9.43
2023-07-05T03:31:38.969Z,9.88
2023-07-05T03:34:07.994Z,10.10
2023-07-05T03:36:36.405Z,9.80
2023-07-05T03:39:04.847Z,10.02
2023-07-05T03:41:33.173Z,9.65
2023-07-05T03:44:03.121Z,11.10
2023-07-05T03:46:31.580Z,10.43
2023-07-05T03:49:01.411Z,11.05
2023-07-05T03:51:29.814Z,11.00
2023-07-05T03:54:00.044Z,10.50
2023-07-05T03:56:29.745Z,11.38
2023-07-05T03:58:58.630Z,9.60
2023-07-05T04:01:28.410Z,10.18
2023-07-05T04:03:58.380Z,10.43
2023-07-05T04:06:30.123Z,10.80
2023-07-05T04:08:58.755Z,10.35
2023-07-05T04:11:27.162Z,11.20
2023-07-05T04:13:57.370Z,10.35
2023-07-05T04:16:28.020Z,9.93
2023-07-05T04:18:58.029Z,11.02
2023-07-05T04:21:28.853Z,9.77
2023-07-05T04:23:57.273Z,10.00
2023-07-05T04:26:27.127Z,10.43
2023-07-05T04:28:55.968Z,10.55
2023-07-05T04:31:28.620Z,10.32
2023-07-05T04:33:57.725Z,10.32
2023-07-05T04:36:29.069Z,9.63
2023-07-05T04:38:59.407Z,9.88
2023-07-05T04:41:28.055Z,9.30
2023-07-05T04:43:56.466Z,10.20
2023-07-05T04:46:25.455Z,9.52
2023-07-05T04:48:54.296Z,9.30
2023-07-05T04:51:22.708Z,9.18
2023-07-05T04:53:52.439Z,8.77
2023-07-05T04:56:20.828Z,9.75
2023-07-05T04:58:50.769Z,8.65
2023-07-05T05:01:20.733Z,8.45
2023-07-05T05:03:49.257Z,8.65
2023-07-05T05:06:17.610Z,8.10
2023-07-05T05:08:46.092Z,7.35
2023-07-05T05:11:15.941Z,7.85
2023-07-05T05:13:44.320Z,8.10
2023-07-05T05:16:12.811Z,8.40
2023-07-05T05:18:41.530Z,7.82
2023-07-05T05:21:09.861Z,8.43
2023-07-05T05:23:38.665Z,7.70
2023-07-05T05:26:07.270Z,7.40
2023-07-05T05:28:37.540Z,7.70
2023-07-05T05:31:07.732Z,7.63
2023-07-05T05:33:36.554Z,7.43
2023-07-05T05:36:05.447Z,6.68
2023-07-05T05:38:33.905Z,7.38
2023-07-05T05:41:03.645Z,7.63
2023-07-05T05:43:32.361Z,7.10
2023-07-05T05:46:02.699Z,7.03
2023-07-05T05:48:31.228Z,6.70
2023-07-05T05:50:59.586Z,4.85
2023-07-05T05:53:27.887Z,3.67
2023-07-05T05:55:58.612Z,3.38
2023-07-05T05:58:27.492Z,3.65
2023-07-05T06:00:56.141Z,3.50
2023-07-05T06:03:26.143Z,3.80
2023-07-05T06:05:56.237Z,3.80
2023-07-05T06:08:24.677Z,3.80
2023-07-05T06:10:57.443Z,4.03
2023-07-05T06:13:26.934Z,3.55
2023-07-05T06:16:12.892Z,3.28
2023-07-05T06:18:44.997Z,3.70
2023-07-05T06:21:13.932Z,3.70
2023-07-05T06:23:42.356Z,4.10
2023-07-05T06:26:11.581Z,3.40
2023-07-05T06:28:40.562Z,3.80
2023-07-05T06:31:11.327Z,3.25
2023-07-05T06:33:40.371Z,3.42
2023-07-05T06:36:10.780Z,3.92
2023-07-05T06:38:39.630Z,3.60
2023-07-05T06:41:07.980Z,3.78
2023-07-05T06:43:36.347Z,3.83
2023-07-05T06:46:04.762Z,2.78
2023-07-05T06:48:33.139Z,3.45
2023-07-05T06:51:01.546Z,3.10
2023-07-05T06:56:02.746Z,3.20
2023-07-05T06:58:31.080Z,3.65
2023-07-05T07:01:02.752Z,3.60
2023-07-05T07:03:31.475Z,2.95
2023-07-05T07:06:00.740Z,3.22
2023-07-05T07:08:35.152Z,2.92
2023-07-05T07:11:04.481Z,3.30
2023-07-05T07:13:37.443Z,3.28
2023-07-05T07:16:08.544Z,3.20
2023-07-05T07:18:38.908Z,3.50
2023-07-05T07:21:08.458Z,3.60
2023-07-05T07:23:38.653Z,3.45
2023-07-05T07:26:08.916Z,3.25
2023-07-05T07:28:38.093Z,3.53
2023-07-05T07:31:13.567Z,3.47
2023-07-05T07:33:42.153Z,3.42
2023-07-05T07:36:11.672Z,2.95
2023-07-05T07:38:42.028Z,3.17
2023-07-05T07:41:18.049Z,2.90
2023-07-05T07:43:47.060Z,3.30
2023-07-05T07:46:16.787Z,3.45
2023-07-05T07:48:47.856Z,2.90
2023-07-05T07:51:31.427Z,3.15
2023-07-05T07:54:07.101Z,3.25
2023-07-05T07:56:35.559Z,2.97
2023-07-05T07:59:07.869Z,3.10
2023-07-05T08:01:39.086Z,3.20
2023-07-05T08:04:09.263Z,3.30
2023-07-05T08:06:40.278Z,2.80
2023-07-05T08:09:12.455Z,3.13
2023-07-05T08:11:41.122Z,3.10
2023-07-05T08:14:10.071Z,3.20
2023-07-05T08:16:38.492Z,3.50
2023-07-05T08:19:06.662Z,3.45
2023-07-05T08:21:34.969Z,2.88
2023-07-05T08:24:16.363Z,3.92
2023-07-05T08:26:53.106Z,3.10
2023-07-05T08:29:21.792Z,2.65
2023-07-05T08:31:51.234Z,2.85
2023-07-05T08:34:20.277Z,2.22
2023-07-05T08:36:48.658Z,2.50
2023-07-05T08:39:16.890Z,2.75
2023-07-05T08:42:04.574Z,2.75
2023-07-05T08:44:46.503Z,2.67
2023-07-05T08:47:23.841Z,1.60
2023-07-05T08:50:06.213Z,1.92
2023-07-05T08:52:43.863Z,1.20
2023-07-05T08:55:16.052Z,1.23
2023-07-05T08:57:49.230Z,0.85
2023-07-05T09:00:22.052Z,1.00
2023-07-05T09:02:50.201Z,1.10
2023-07-05T09:05:23.971Z,1.42
2023-07-05T09:08:02.574Z,1.30
2023-07-05T09:10:39.007Z,1.50
2023-07-05T09:13:17.419Z,1.45
2023-07-05T09:15:50.550Z,1.08
2023-07-05T09:18:28.883Z,1.33
2023-07-05T09:21:12.465Z,1.30
2023-07-05T09:23:44.857Z,1.30
2023-07-05T09:26:17.711Z,1.50
2023-07-05T09:28:52.217Z,1.40
2023-07-05T09:31:28.546Z,1.52
2023-07-05T09:34:09.789Z,1.40
2023-07-05T09:36:38.786Z,1.00
2023-07-05T09:39:18.333Z,1.63
2023-07-05T09:41:50.639Z,0.90
2023-07-05T09:44:21.513Z,1.20
2023-07-05T09:46:50.400Z,1.40
2023-07-05T09:49:19.647Z,1.40
2023-07-05T09:51:47.787Z,1.38
2023-07-05T09:54:22.715Z,1.45
2023-07-05T09:56:59.149Z,1.25
2023-07-05T09:59:28.592Z,1.75
2023-07-05T10:02:01.653Z,1.33
2023-07-05T10:04:30.696Z,1.20
2023-07-05T10:07:04.078Z,1.10
2023-07-05T10:09:32.255Z,1.20
2023-07-05T10:12:13.509Z,1.50
2023-07-05T10:14:42.957Z,1.48
2023-07-05T10:17:12.587Z,1.63
2023-07-05T10:19:50.154Z,1.65
2023-07-05T10:22:23.694Z,1.60
2023-07-05T10:24:54.428Z,1.55
2023-07-05T10:27:28.519Z,1.27
2023-07-05T10:30:03.865Z,1.63
2023-07-05T10:32:32.571Z,1.67
2023-07-05T10:35:01.692Z,1.60
2023-07-05T10:37:34.045Z,1.60
2023-07-05T10:40:09.633Z,1.80
2023-07-05T10:42:38.852Z,1.67
2023-07-05T10:45:14.647Z,1.40
2023-07-05T10:47:43.849Z,1.45
2023-07-05T10:50:16.124Z,1.77
2023-07-05T10:52:52.785Z,1.73
2023-07-05T10:55:24.239Z,1.67
2023-07-05T10:57:57.454Z,1.50
2023-07-05T11:00:38.905Z,1.50
2023-07-05T11:03:12.759Z,1.85
2023-07-05T11:05:44.764Z,1.15
2023-07-05T11:08:19.016Z,0.80
2023-07-05T11:10:48.566Z,1.23
2023-07-05T11:13:17.738Z,1.48
2023-07-05T11:15:48.474Z,1.73
2023-07-05T11:18:19.073Z,1.65
2023-07-05T11:20:52.856Z,1.00
2023-07-05T11:24:07.309Z,1.45
2023-07-05T11:26:45.993Z,1.20
2023-07-05T11:29:48.797Z,1.63
2023-07-05T11:32:18.319Z,1.35
2023-07-05T11:34:52.220Z,1.77
2023-07-05T11:37:43.310Z,1.30
2023-07-05T11:40:44.478Z,1.42
2023-07-05T11:43:24.065Z,1.75
2023-07-05T11:45:52.320Z,1.30
2023-07-05T11:48:40.968Z,1.83
2023-07-05T11:53:59.742Z,2.30
2023-07-05T11:56:31.442Z,2.10
2023-07-05T11:59:00.701Z,2.00
2023-07-05T12:01:32.181Z,1.73
2023-07-05T12:04:08.457Z,1.80
2023-07-05T12:06:41.443Z,2.10
2023-07-05T12:09:15.311Z,1.63
2023-07-05T12:11:44.137Z,1.60
2023-07-05T12:14:14.567Z,1.40
2023-07-05T12:16:43.494Z,1.60
2023-07-05T12:19:19.456Z,0.85
2023-07-05T12:21:56.302Z,1.33
2023-07-05T12:24:24.419Z,1.45
2023-07-05T12:26:54.982Z,1.70
2023-07-05T12:29:26.169Z,1.23
2023-07-05T12:32:06.487Z,1.60
2023-07-05T12:34:36.034Z,1.58
2023-07-05T12:37:04.121Z,1.60
2023-07-05T12:39:32.157Z,1.00
2023-07-05T12:42:03.860Z,1.90
2023-07-05T12:44:34.521Z,1.20
2023-07-05T12:47:17.178Z,0.85
2023-07-05T12:49:46.988Z,0.90
2023-07-05T12:52:20.934Z,1.15
2023-07-05T12:54:49.287Z,1.00
2023-07-05T12:57:23.560Z,1.27
2023-07-05T13:00:05.083Z,1.40
2023-07-05T13:02:36.824Z,1.25
2023-07-05T13:05:07.531Z,1.50
2023-07-05T13:07:38.585Z,1.13
2023-07-05T13:10:09.599Z,1.33
2023-07-05T13:12:49.981Z,0.93
2023-07-05T13:15:18.917Z,0.15
2023-07-05T13:17:47.266Z,0.00
2023-07-05T13:20:21.040Z,0.10
2023-07-05T13:22:58.522Z,0.00
2023-07-05T13:25:32.853Z,0.70
2023-07-05T13:28:03.664Z,0.28
2023-07-05T13:30:31.961Z,0.35
2023-07-05T13:33:02.174Z,0.75
2023-07-05T13:35:33.811Z,0.20
2023-07-05T13:38:03.568Z,0.10
2023-07-05T13:40:32.782Z,0.20
2023-07-05T13:43:04.049Z,0.77
2023-07-05T13:45:35.287Z,0.13
2023-07-05T13:48:03.532Z,0.10
2023-07-05T13:50:35.293Z,0.10
2023-07-05T13:53:05.022Z,1.75
2023-07-05T13:55:35.161Z,1.60
2023-07-05T13:58:07.953Z,1.70
2023-07-05T14:00:37.359Z,1.20
2023-07-05T14:03:06.031Z,1.80
2023-07-05T14:05:35.686Z,1.73
2023-07-05T14:08:07.695Z,0.20
2023-07-05T14:10:37.656Z,0.32
2023-07-05T14:13:05.751Z,0.20
2023-07-05T14:15:37.982Z,0.35
2023-07-05T14:18:06.740Z,1.23
2023-07-05T14:20:38.471Z,0.40
2023-07-05T14:23:12.575Z,0.22
2023-07-05T14:25:44.663Z,0.47
2023-07-05T14:28:13.731Z,0.65
2023-07-05T14:30:42.869Z,0.40
2023-07-05T14:33:11.590Z,0.00
2023-07-05T14:35:40.983Z,0.30
2023-07-05T14:38:10.053Z,0.10
2023-07-05T14:40:40.237Z,0.40
2023-07-05T14:43:08.309Z,0.73
2023-07-05T14:45:38.486Z,0.25
2023-07-05T14:48:07.155Z,0.52
2023-07-05T14:50:36.299Z,0.32
2023-07-05T14:53:09.738Z,0.20
2023-07-05T14:55:38.889Z,0.65
2023-07-05T14:58:12.797Z,0.32
2023-07-05T15:00:42.996Z,0.40
2023-07-05T15:03:15.722Z,0.70
2023-07-05T15:05:43.776Z,0.73
2023-07-05T15:08:13.192Z,0.00
2023-07-05T15:10:41.426Z,0.03
2023-07-05T15:13:12.584Z,1.20
2023-07-05T15:15:43.449Z,0.10
2023-07-05T15:18:11.573Z,0.52
2023-07-05T15:20:39.972Z,0.68
2023-07-05T15:23:08.258Z,0.20
2023-07-05T15:25:37.746Z,0.40
2023-07-05T15:28:06.409Z,0.45
2023-07-05T15:30:34.940Z,0.10
2023-07-05T15:33:03.011Z,0.40
2023-07-05T15:35:31.147Z,0.10
2023-07-05T15:37:59.215Z,0.40
2023-07-05T15:40:27.272Z,0.17
2023-07-05T15:42:56.665Z,0.00
2023-07-05T15:45:26.673Z,0.10
2023-07-05T15:47:55.474Z,0.20
2023-07-05T15:50:28.553Z,0.30
2023-07-05T15:52:57.459Z,0.70
2023-07-05T15:55:28.097Z,0.10
2023-07-05T15:58:01.195Z,0.20
2023-07-05T16:00:30.093Z,0.20
2023-07-05T16:03:00.437Z,0.82
2023-07-05T16:05:32.214Z,0.20
2023-07-05T16:08:02.447Z,0.20
2023-07-05T16:10:31.505Z,0.95
2023-07-05T16:13:02.396Z,0.40
2023-07-05T16:15:32.419Z,1.10
2023-07-05T16:18:00.936Z,0.55
2023-07-05T16:20:29.132Z,0.60
2023-07-05T16:22:57.253Z,0.10
2023-07-05T16:25:25.923Z,0.63
2023-07-05T16:27:54.099Z,0.70
2023-07-05T16:30:23.638Z,0.30
2023-07-05T16:32:51.711Z,0.57
2023-07-05T16:35:19.792Z,0.47
2023-07-05T16:37:47.888Z,0.25
2023-07-05T16:40:17.728Z,1.23
2023-07-05T16:42:46.897Z,0.30
2023-07-05T16:45:15.032Z,0.40
2023-07-05T16:47:45.173Z,0.20
2023-07-05T16:50:16.427Z,0.25
2023-07-05T16:52:44.815Z,0.13
2023-07-05T16:55:12.898Z,0.22
2023-07-05T16:57:41.372Z,0.80
2023-07-05T17:00:10.675Z,0.28
2023-07-05T17:02:41.369Z,3.30
2023-07-05T17:05:11.245Z,2.97
2023-07-05T17:07:39.317Z,3.10
2023-07-05T17:10:08.647Z,3.03
2023-07-05T17:12:36.877Z,2.85
2023-07-05T17:15:05.683Z,3.15
2023-07-05T17:17:34.636Z,2.90
2023-07-05T17:20:03.884Z,2.65
2023-07-05T17:22:37.864Z,3.05
2023-07-05T17:25:07.310Z,2.70
2023-07-05T17:27:35.369Z,2.83
2023-07-05T17:30:03.603Z,2.75
2023-07-05T17:32:31.693Z,2.40
2023-07-05T17:35:00.040Z,2.72
2023-07-05T17:37:28.818Z,2.58
2023-07-05T17:39:58.399Z,2.72
2023-07-05T17:42:26.497Z,2.70
2023-07-05T17:44:59.775Z,2.50
2023-07-05T17:47:28.044Z,2.40
2023-07-05T17:49:56.292Z,2.63
2023-07-05T17:52:24.912Z,2.20
2023-07-05T17:54:53.279Z,2.30
2023-07-05T17:57:22.814Z,2.60
2023-07-05T17:59:50.860Z,2.45
2023-07-05T18:02:18.974Z,2.60
2023-07-05T18:04:47.097Z,2.60
2023-07-05T18:07:15.253Z,2.58
2023-07-05T18:09:43.692Z,2.60
2023-07-05T18:12:12.170Z,2.22
2023-07-05T18:14:42.292Z,2.50
2023-07-05T18:17:10.535Z,2.60
2023-07-05T18:19:38.868Z,3.05
2023-07-05T18:22:07.517Z,2.70
2023-07-05T18:24:35.572Z,2.38
2023-07-05T18:27:03.647Z,2.78
2023-07-05T18:29:31.691Z,2.67
2023-07-05T18:32:01.149Z,2.80
2023-07-05T18:34:29.201Z,3.17
2023-07-05T18:36:57.660Z,2.47
2023-07-05T18:39:26.124Z,2.85
2023-07-05T18:41:54.167Z,2.88
2023-07-05T18:44:22.692Z,2.70
2023-07-05T18:46:50.951Z,2.92
2023-07-05T18:49:20.897Z,2.90
2023-07-05T18:51:50.345Z,3.17
2023-07-05T18:54:18.596Z,2.72
2023-07-05T18:56:46.659Z,3.17
2023-07-05T18:59:15.331Z,2.80
2023-07-05T19:01:44.897Z,2.47
2023-07-05T19:04:13.130Z,2.78
2023-07-05T19:06:42.608Z,2.50
2023-07-05T19:09:11.438Z,2.50
2023-07-05T19:11:39.909Z,2.70
2023-07-05T19:14:09.849Z,2.63
2023-07-05T19:16:38.379Z,2.58
2023-07-05T19:19:07.888Z,2.70
2023-07-05T19:21:36.141Z,2.25
2023-07-05T19:24:06.290Z,2.55
2023-07-05T19:26:34.426Z,2.40
2023-07-05T19:29:03.000Z,2.47
2023-07-05T19:31:31.116Z,2.42
2023-07-05T19:33:59.204Z,2.53
2023-07-05T19:36:28.181Z,2.85
2023-07-05T19:38:57.179Z,2.45
2023-07-05T19:41:26.754Z,2.90
2023-07-05T19:43:54.801Z,2.63
2023-07-05T19:46:27.472Z,2.60
2023-07-05T19:48:58.289Z,2.70
2023-07-05T19:51:26.534Z,2.85
2023-07-05T19:53:54.728Z,2.90
2023-07-05T19:56:23.314Z,2.55
2023-07-05T19:58:52.871Z,2.63
2023-07-05T20:01:21.004Z,2.60
2023-07-05T20:03:49.155Z,2.80
2023-07-05T20:06:17.941Z,2.70
2023-07-05T20:08:47.240Z,2.90
2023-07-05T20:11:19.220Z,2.90
2023-07-05T20:13:47.628Z,2.80
2023-07-05T20:16:19.873Z,2.70
2023-07-05T20:18:48.580Z,2.55
2023-07-05T20:21:17.931Z,2.60
2023-07-05T20:23:47.360Z,2.65
2023-07-05T20:26:17.605Z,2.63
2023-07-05T20:28:47.186Z,2.50
2023-07-05T20:31:19.069Z,2.70
2023-07-05T20:33:47.152Z,3.03
2023-07-05T20:36:16.780Z,2.83
2023-07-05T20:38:45.952Z,3.95
2023-07-05T20:41:14.564Z,3.05
2023-07-05T20:43:42.781Z,2.33
2023-07-05T20:46:11.152Z,3.53
2023-07-05T20:48:41.241Z,3.03
2023-07-05T20:51:11.981Z,3.22
2023-07-05T20:53:40.108Z,2.90
2023-07-05T20:56:08.345Z,3.05
2023-07-05T20:58:36.658Z,2.88
2023-07-05T21:01:06.494Z,2.97
2023-07-05T21:03:34.718Z,3.08
2023-07-05T21:06:04.116Z,3.22
2023-07-05T21:08:34.066Z,3.53
2023-07-05T21:11:05.797Z,2.97
2023-07-05T21:13:35.038Z,3.17
2023-07-05T21:16:05.727Z,2.67
2023-07-05T21:18:34.366Z,3.00
2023-07-05T21:21:04.053Z,3.13
2023-07-05T21:23:33.829Z,3.10
2023-07-05T21:26:04.817Z,2.90
2023-07-05T21:28:32.965Z,3.45
2023-07-05T21:31:02.899Z,3.55
2023-07-05T21:33:33.277Z,2.88
2023-07-05T21:36:03.100Z,3.55
2023-07-05T21:38:31.438Z,3.22
2023-07-05T21:41:01.514Z,3.03
2023-07-05T21:43:30.696Z,3.22
2023-07-05T21:45:59.235Z,3.50
2023-07-05T21:48:30.026Z,2.95
2023-07-05T21:50:59.337Z,3.80
2023-07-05T21:53:29.466Z,3.47
2023-07-05T21:55:59.585Z,3.30
2023-07-05T21:58:30.373Z,3.30
2023-07-05T22:00:59.847Z,3.30
2023-07-05T22:03:28.659Z,3.03
2023-07-05T22:05:59.848Z,3.00
2023-07-05T22:08:29.557Z,3.60
2023-07-05T22:10:57.697Z,3.58
2023-07-05T22:13:26.590Z,3.40
2023-07-05T22:15:55.542Z,2.90
2023-07-05T22:18:23.935Z,2.85
2023-07-05T22:20:51.973Z,3.97
2023-07-05T22:23:20.098Z,2.90
2023-07-05T22:25:49.526Z,3.20
2023-07-05T22:28:17.715Z,2.95
2023-07-05T22:30:48.598Z,3.60
2023-07-05T22:33:17.506Z,3.70
2023-07-05T22:35:46.127Z,3.05
2023-07-05T22:38:14.485Z,3.55
2023-07-05T22:40:42.581Z,3.10
2023-07-05T22:43:12.219Z,3.13
2023-07-05T22:45:40.388Z,3.15
2023-07-05T22:48:08.502Z,3.47
2023-07-05T22:50:36.957Z,3.53
2023-07-05T22:53:05.530Z,3.08
2023-07-05T22:55:34.216Z,3.10
2023-07-05T22:58:02.711Z,3.25
2023-07-05T23:00:32.210Z,3.40
2023-07-05T23:03:00.414Z,3.67
2023-07-05T23:05:29.894Z,3.45
2023-07-05T23:08:00.148Z,3.53
2023-07-05T23:10:28.251Z,3.05
2023-07-05T23:12:56.346Z,3.72
2023-07-05T23:15:24.620Z,3.38
2023-07-05T23:17:54.220Z,3.65
2023-07-05T23:20:24.326Z,3.40
2023-07-05T23:22:52.872Z,3.58
2023-07-05T23:25:21.048Z,3.53
2023-07-05T23:27:51.234Z,3.45
2023-07-05T23:30:19.784Z,4.15
2023-07-05T23:32:49.924Z,3.55
2023-07-05T23:35:19.689Z,3.60
2023-07-05T23:37:47.897Z,3.35
2023-07-05T23:40:16.049Z,3.65
2023-07-05T23:42:46.446Z,3.13
2023-07-05T23:45:15.105Z,3.30
2023-07-05T23:47:43.418Z,3.78
2023-07-05T23:50:12.800Z,3.38
2023-07-05T23:52:42.495Z,3.28
2023-07-05T23:55:11.457Z,3.65
2023-07-05T23:57:39.696Z,3.08
